Fayetteville, Ohio
Current Conditions -  °F | °C
As of 7:54 PM on Friday 24 Oct 2014 (Local Time) from KILN Reporting Station
Clear Clear  
Wind Chill: 54°   Ceiling: Unl
Heat Index: 54°   Visibility: 10mi
Dew Point: 37°   Wind: 3mph
Humidity: 53%   Direction: 220°SW
Pressure: 30.04"   Gusts: NA
Location:  39.19°N, 83.93°W
Report Text: KILN 242354Z AUTO 22003KT 10SM CLR 12/03 A3004 RMK AO2 SLP184 T01220028 10183 20117 53005
Loading
Personal Weather Stations






























Interactive Weather Map
Tropical Storm Tracking
New forecast layout! Learn more

10-Day Weather Forecast

Advertisements
Track Severe Weather on mobile